PWSweather.com
Personal Weather Stations
Station Observations
SHAHALMS1
Eftra, Falkenberg, HA

EftraFalkenberg, HA

Lat: 56.85, Lon: 12.65

Elevation: 140

Station Type:

http://hem.passagen.se/risarp101

High Low Average
Temperature 83.7°F28.7°C 52.7°F11.5°C 70.5°F21.4°C
Dew Point 62.7°F17.1°C 38.5°F3.6°C 54.5°F12.5°C
Winds 9.3 mph 15.0 kmh 0.1 mph 0.2 kmh 4.0 mph ESE6.4 kmh ESE
Wind Gusts 20.4 mph32.8 kmh 1.4 mph2.3 kmh 11.0 mph17.7 kmh
Humidity 74% 44% 58%
Pressure 30.36 in1028.1 mb 30.15 in1021.0 mb -
Precipitation 0.00 in0.0 mm - -
Hour Temp Dew Point Humidity Winds Wind Gusts Pressure Precip Precip Rate Daily Precip Total
12:00 AM 55.4°F13.0°C 38.5°F3.6°C 53% 1.4 mph E2.3 kmh E 5.0 mph8.0 kmh 30.33 in1027.1 mb 0.00 in0.0 mm 0.00 in0.0 mm 0.00 in0.0 mm
12:10 AM 55.2°F12.9°C 39.3°F4.1°C 55% 3.6 mph E5.8 kmh E 10.0 mph16.1 kmh 30.33 in1027.1 mb 0.00 in0.0 mm 0.00 in0.0 mm 0.00 in0.0 mm
12:20 AM 55.2°F12.9°C 40.2°F4.6°C 57% 2.9 mph E4.7 kmh E 8.6 mph13.8 kmh 30.36 in1028.1 mb 0.00 in0.0 mm 0.00 in0.0 mm 0.00 in0.0 mm
12:30 AM 54.9°F12.7°C 40.4°F4.7°C 58% 0.7 mph E1.1 kmh E 6.1 mph9.8 kmh 30.36 in1028.1 mb 0.00 in0.0 mm 0.00 in0.0 mm 0.00 in0.0 mm
12:40 AM 54.7°F12.6°C 40.6°F4.8°C 59% 0.6 mph E1.0 kmh E 5.0 mph8.0 kmh 30.36 in1028.1 mb 0.00 in0.0 mm 0.00 in0.0 mm 0.00 in0.0 mm
12:50 AM 54.5°F12.5°C 40.5°F4.7°C 59% 0.7 mph E1.1 kmh E 7.5 mph12.1 kmh 30.33 in1027.1 mb 0.00 in0.0 mm 0.00 in0.0 mm 0.00 in0.0 mm
01:00 AM 54.1°F12.3°C 40.6°F4.8°C 60% 1.9 mph E3.1 kmh E 7.5 mph12.1 kmh 30.36 in1028.1 mb 0.00 in0.0 mm 0.00 in0.0 mm 0.00 in0.0 mm
01:10 AM 53.8°F12.1°C 40.2°F4.6°C 60% 1.5 mph E2.4 kmh E 8.6 mph13.8 kmh 30.36 in1028.1 mb 0.00 in0.0 mm 0.00 in0.0 mm 0.00 in0.0 mm
01:20 AM 53.6°F12.0°C 40.5°F4.7°C 61% 1.0 mph E1.6 kmh E 6.1 mph9.8 kmh 30.36 in1028.1 mb 0.00 in0.0 mm 0.00 in0.0 mm 0.00 in0.0 mm
01:30 AM 53.8°F12.1°C 41.1°F5.1°C 62% 2.2 mph E3.5 kmh E 10.4 mph16.7 kmh 30.36 in1028.1 mb 0.00 in0.0 mm 0.00 in0.0 mm 0.00 in0.0 mm
01:40 AM 53.8°F12.1°C 41.1°F5.1°C 62% 1.9 mph E3.1 kmh E 6.1 mph9.8 kmh 30.36 in1028.1 mb 0.00 in0.0 mm 0.00 in0.0 mm 0.00 in0.0 mm
01:50 AM 53.6°F12.0°C 41.3°F5.2°C 63% 1.7 mph E2.7 kmh E 7.9 mph12.7 kmh 30.36 in1028.1 mb 0.00 in0.0 mm 0.00 in0.0 mm 0.00 in0.0 mm
02:00 AM 53.6°F12.0°C 41.7°F5.4°C 64% 3.9 mph E6.3 kmh E 10.0 mph16.1 kmh 30.36 in1028.1 mb 0.00 in0.0 mm 0.00 in0.0 mm 0.00 in0.0 mm
02:10 AM 53.6°F12.0°C 41.7°F5.4°C 64% 3.1 mph E5.0 kmh E 9.3 mph15.0 kmh 30.36 in1028.1 mb 0.00 in0.0 mm 0.00 in0.0 mm 0.00 in0.0 mm
02:20 AM 53.8°F12.1°C 42.3°F5.7°C 65% 1.8 mph E2.9 kmh E 6.8 mph10.9 kmh 30.33 in1027.1 mb 0.00 in0.0 mm 0.00 in0.0 mm 0.00 in0.0 mm
02:30 AM 53.6°F12.0°C 42.5°F5.8°C 66% 3.0 mph E4.8 kmh E 9.3 mph15.0 kmh 30.33 in1027.1 mb 0.00 in0.0 mm 0.00 in0.0 mm 0.00 in0.0 mm
02:40 AM 53.6°F12.0°C 42.5°F5.8°C 66% 3.7 mph E6.0 kmh E 9.7 mph15.6 kmh 30.33 in1027.1 mb 0.00 in0.0 mm 0.00 in0.0 mm 0.00 in0.0 mm
02:50 AM 53.6°F12.0°C 42.9°F6.1°C 67% 2.2 mph E3.5 kmh E 5.7 mph9.2 kmh 30.33 in1027.1 mb 0.00 in0.0 mm 0.00 in0.0 mm 0.00 in0.0 mm
03:00 AM 53.4°F11.9°C 42.7°F5.9°C 67% 1.7 mph E2.7 kmh E 6.8 mph10.9 kmh 30.33 in1027.1 mb 0.00 in0.0 mm 0.00 in0.0 mm 0.00 in0.0 mm
03:10 AM 53.2°F11.8°C 42.6°F5.9°C 67% 0.6 mph E1.0 kmh E 7.2 mph11.6 kmh 30.33 in1027.1 mb 0.00 in0.0 mm 0.00 in0.0 mm 0.00 in0.0 mm
03:20 AM 53.2°F11.8°C 42.9°F6.1°C 68% 1.5 mph E2.4 kmh E 6.8 mph10.9 kmh 30.33 in1027.1 mb 0.00 in0.0 mm 0.00 in0.0 mm 0.00 in0.0 mm
03:30 AM 53.1°F11.7°C 42.8°F6.0°C 68% 0.7 mph ENE1.1 kmh ENE 6.8 mph10.9 kmh 30.33 in1027.1 mb 0.00 in0.0 mm 0.00 in0.0 mm 0.00 in0.0 mm
03:40 AM 52.9°F11.6°C 42.6°F5.9°C 68% 0.1 mph NNE0.2 kmh NNE 1.4 mph2.3 kmh 30.33 in1027.1 mb 0.00 in0.0 mm 0.00 in0.0 mm 0.00 in0.0 mm
03:50 AM 52.7°F11.5°C 42.4°F5.8°C 68% 0.2 mph E0.3 kmh E 4.3 mph6.9 kmh 30.30 in1026.1 mb 0.00 in0.0 mm 0.00 in0.0 mm 0.00 in0.0 mm
04:00 AM 52.7°F11.5°C 42.8°F6.0°C 69% 1.2 mph E1.9 kmh E 5.0 mph8.0 kmh 30.30 in1026.1 mb 0.00 in0.0 mm 0.00 in0.0 mm 0.00 in0.0 mm
04:10 AM 52.9°F11.6°C 43.4°F6.3°C 70% 2.3 mph E3.7 kmh E 10.0 mph16.1 kmh 30.30 in1026.1 mb 0.00 in0.0 mm 0.00 in0.0 mm 0.00 in0.0 mm
04:20 AM 53.4°F11.9°C 44.6°F7.0°C 72% 3.9 mph E6.3 kmh E 10.0 mph16.1 kmh 30.27 in1025.1 mb 0.00 in0.0 mm 0.00 in0.0 mm 0.00 in0.0 mm
04:30 AM 53.8°F12.1°C 45.3°F7.4°C 73% 2.4 mph E3.9 kmh E 7.9 mph12.7 kmh 30.27 in1025.1 mb 0.00 in0.0 mm 0.00 in0.0 mm 0.00 in0.0 mm
04:40 AM 54.3°F12.4°C 46.2°F7.9°C 74% 4.6 mph E7.4 kmh E 8.9 mph14.3 kmh 30.27 in1025.1 mb 0.00 in0.0 mm 0.00 in0.0 mm 0.00 in0.0 mm
04:50 AM 54.9°F12.7°C 46.7°F8.2°C 74% 4.0 mph E6.4 kmh E 10.0 mph16.1 kmh 30.27 in1025.1 mb 0.00 in0.0 mm 0.00 in0.0 mm 0.00 in0.0 mm
05:00 AM 55.4°F13.0°C 47.2°F8.4°C 74% 3.8 mph E6.1 kmh E 8.6 mph13.8 kmh 30.27 in1025.1 mb 0.00 in0.0 mm 0.00 in0.0 mm 0.00 in0.0 mm
05:10 AM 55.8°F13.2°C 47.6°F8.7°C 74% 3.4 mph E5.5 kmh E 8.6 mph13.8 kmh 30.27 in1025.1 mb 0.00 in0.0 mm 0.00 in0.0 mm 0.00 in0.0 mm
05:20 AM 56.1°F13.4°C 47.9°F8.8°C 74% 4.7 mph E7.6 kmh E 10.0 mph16.1 kmh 30.30 in1026.1 mb 0.00 in0.0 mm 0.00 in0.0 mm 0.00 in0.0 mm
05:30 AM 56.7°F13.7°C 48.5°F9.2°C 74% 4.4 mph E7.1 kmh E 10.4 mph16.7 kmh 30.27 in1025.1 mb 0.00 in0.0 mm 0.00 in0.0 mm 0.00 in0.0 mm
05:40 AM 57.4°F14.1°C 49.2°F9.6°C 74% 3.5 mph E5.6 kmh E 7.5 mph12.1 kmh 30.27 in1025.1 mb 0.00 in0.0 mm 0.00 in0.0 mm 0.00 in0.0 mm
05:50 AM 57.9°F14.4°C 49.7°F9.8°C 74% 3.8 mph E6.1 kmh E 10.0 mph16.1 kmh 30.30 in1026.1 mb 0.00 in0.0 mm 0.00 in0.0 mm 0.00 in0.0 mm
06:00 AM 58.3°F14.6°C 50.0°F10.0°C 74% 4.1 mph E6.6 kmh E 9.3 mph15.0 kmh 30.30 in1026.1 mb 0.00 in0.0 mm 0.00 in0.0 mm 0.00 in0.0 mm
06:10 AM 58.8°F14.9°C 50.5°F10.3°C 74% 4.1 mph E6.6 kmh E 9.7 mph15.6 kmh 30.30 in1026.1 mb 0.00 in0.0 mm 0.00 in0.0 mm 0.00 in0.0 mm
06:20 AM 59.4°F15.2°C 51.1°F10.6°C 74% 5.2 mph E8.4 kmh E 10.0 mph16.1 kmh 30.30 in1026.1 mb 0.00 in0.0 mm 0.00 in0.0 mm 0.00 in0.0 mm
06:30 AM 60.1°F15.6°C 51.8°F11.0°C 74% 5.2 mph E8.4 kmh E 12.2 mph19.6 kmh 30.30 in1026.1 mb 0.00 in0.0 mm 0.00 in0.0 mm 0.00 in0.0 mm
06:40 AM 61.0°F16.1°C 52.6°F11.4°C 74% 5.0 mph E8.0 kmh E 12.5 mph20.1 kmh 30.30 in1026.1 mb 0.00 in0.0 mm 0.00 in0.0 mm 0.00 in0.0 mm
06:50 AM 61.9°F16.6°C 53.5°F11.9°C 74% 6.1 mph E9.8 kmh E 14.0 mph22.5 kmh 30.30 in1026.1 mb 0.00 in0.0 mm 0.00 in0.0 mm 0.00 in0.0 mm
07:00 AM 62.4°F16.9°C 53.3°F11.8°C 72% 7.7 mph E12.4 kmh E 14.0 mph22.5 kmh 30.30 in1026.1 mb 0.00 in0.0 mm 0.00 in0.0 mm 0.00 in0.0 mm
07:10 AM 63.5°F17.5°C 53.9°F12.2°C 71% 6.7 mph E10.8 kmh E 12.2 mph19.6 kmh 30.30 in1026.1 mb 0.00 in0.0 mm 0.00 in0.0 mm 0.00 in0.0 mm
07:20 AM 64.9°F18.3°C 54.5°F12.5°C 69% 8.1 mph E13.0 kmh E 13.6 mph21.9 kmh 30.27 in1025.1 mb 0.00 in0.0 mm 0.00 in0.0 mm 0.00 in0.0 mm
07:30 AM 66.0°F18.9°C 55.6°F13.1°C 69% 8.1 mph E13.0 kmh E 14.3 mph23.0 kmh 30.30 in1026.1 mb 0.00 in0.0 mm 0.00 in0.0 mm 0.00 in0.0 mm
07:40 AM 67.8°F19.9°C 56.5°F13.6°C 67% 8.7 mph E14.0 kmh E 16.5 mph26.6 kmh 30.30 in1026.1 mb 0.00 in0.0 mm 0.00 in0.0 mm 0.00 in0.0 mm
07:50 AM 69.4°F20.8°C 56.3°F13.5°C 63% 9.3 mph E15.0 kmh E 19.3 mph31.1 kmh 30.30 in1026.1 mb 0.00 in0.0 mm 0.00 in0.0 mm 0.00 in0.0 mm
08:00 AM 71.2°F21.8°C 57.1°F13.9°C 61% 8.6 mph E13.8 kmh E 15.0 mph24.1 kmh 30.30 in1026.1 mb 0.00 in0.0 mm 0.00 in0.0 mm 0.00 in0.0 mm
08:10 AM 72.5°F22.5°C 56.9°F13.8°C 58% 7.1 mph E11.4 kmh E 14.0 mph22.5 kmh 30.30 in1026.1 mb 0.00 in0.0 mm 0.00 in0.0 mm 0.00 in0.0 mm
08:20 AM 73.2°F22.9°C 57.1°F13.9°C 57% 6.2 mph E10.0 kmh E 13.6 mph21.9 kmh 30.30 in1026.1 mb 0.00 in0.0 mm 0.00 in0.0 mm 0.00 in0.0 mm
08:30 AM 73.6°F23.1°C 56.9°F13.8°C 56% 5.1 mph E8.2 kmh E 11.8 mph19.0 kmh 30.30 in1026.1 mb 0.00 in0.0 mm 0.00 in0.0 mm 0.00 in0.0 mm
08:40 AM 74.5°F23.6°C 57.8°F14.3°C 56% 5.5 mph E8.9 kmh E 12.5 mph20.1 kmh 30.30 in1026.1 mb 0.00 in0.0 mm 0.00 in0.0 mm 0.00 in0.0 mm
08:50 AM 74.3°F23.5°C 57.1°F13.9°C 55% 5.1 mph E8.2 kmh E 11.8 mph19.0 kmh 30.30 in1026.1 mb 0.00 in0.0 mm 0.00 in0.0 mm 0.00 in0.0 mm
09:00 AM 74.7°F23.7°C 57.9°F14.4°C 56% 5.7 mph E9.2 kmh E 12.2 mph19.6 kmh 30.27 in1025.1 mb 0.00 in0.0 mm 0.00 in0.0 mm 0.00 in0.0 mm
09:10 AM 75.4°F24.1°C 58.1°F14.5°C 55% 5.3 mph E8.5 kmh E 10.0 mph16.1 kmh 30.27 in1025.1 mb 0.00 in0.0 mm 0.00 in0.0 mm 0.00 in0.0 mm
09:20 AM 76.1°F24.5°C 58.8°F14.9°C 55% 6.0 mph E9.7 kmh E 12.2 mph19.6 kmh 30.30 in1026.1 mb 0.00 in0.0 mm 0.00 in0.0 mm 0.00 in0.0 mm
09:30 AM 77.2°F25.1°C 58.7°F14.8°C 53% 5.1 mph ESE8.2 kmh ESE 13.6 mph21.9 kmh 30.30 in1026.1 mb 0.00 in0.0 mm 0.00 in0.0 mm 0.00 in0.0 mm
09:40 AM 77.7°F25.4°C 58.7°F14.8°C 52% 4.7 mph E7.6 kmh E 11.8 mph19.0 kmh 30.30 in1026.1 mb 0.00 in0.0 mm 0.00 in0.0 mm 0.00 in0.0 mm
09:50 AM 77.7°F25.4°C 58.7°F14.8°C 52% 4.4 mph E7.1 kmh E 9.3 mph15.0 kmh 30.30 in1026.1 mb 0.00 in0.0 mm 0.00 in0.0 mm 0.00 in0.0 mm
10:00 AM 78.4°F25.8°C 59.4°F15.2°C 52% 4.6 mph ESE7.4 kmh ESE 13.6 mph21.9 kmh 30.30 in1026.1 mb 0.00 in0.0 mm 0.00 in0.0 mm 0.00 in0.0 mm
10:10 AM 78.8°F26.0°C 58.6°F14.8°C 50% 5.0 mph SE8.0 kmh SE 14.0 mph22.5 kmh 30.30 in1026.1 mb 0.00 in0.0 mm 0.00 in0.0 mm 0.00 in0.0 mm
10:20 AM 79.2°F26.2°C 59.5°F15.3°C 51% 6.9 mph ESE11.1 kmh ESE 13.6 mph21.9 kmh 30.30 in1026.1 mb 0.00 in0.0 mm 0.00 in0.0 mm 0.00 in0.0 mm
10:30 AM 79.2°F26.2°C 59.5°F15.3°C 51% 6.2 mph ESE10.0 kmh ESE 11.8 mph19.0 kmh 30.27 in1025.1 mb 0.00 in0.0 mm 0.00 in0.0 mm 0.00 in0.0 mm
10:40 AM 79.2°F26.2°C 60.0°F15.6°C 52% 4.6 mph SE7.4 kmh SE 11.8 mph19.0 kmh 30.27 in1025.1 mb 0.00 in0.0 mm 0.00 in0.0 mm 0.00 in0.0 mm
10:50 AM 79.3°F26.3°C 59.6°F15.3°C 51% 7.5 mph SE12.1 kmh SE 20.4 mph32.8 kmh 30.30 in1026.1 mb 0.00 in0.0 mm 0.00 in0.0 mm 0.00 in0.0 mm
11:00 AM 79.3°F26.3°C 60.2°F15.7°C 52% 6.2 mph E10.0 kmh E 16.8 mph27.0 kmh 30.27 in1025.1 mb 0.00 in0.0 mm 0.00 in0.0 mm 0.00 in0.0 mm
11:10 AM 79.3°F26.3°C 59.6°F15.3°C 51% 5.3 mph E8.5 kmh E 12.2 mph19.6 kmh 30.27 in1025.1 mb 0.00 in0.0 mm 0.00 in0.0 mm 0.00 in0.0 mm
11:20 AM 79.7°F26.5°C 60.0°F15.6°C 51% 7.3 mph SE11.7 kmh SE 14.0 mph22.5 kmh 30.27 in1025.1 mb 0.00 in0.0 mm 0.00 in0.0 mm 0.00 in0.0 mm
11:30 AM 79.9°F26.6°C 60.7°F15.9°C 52% 2.5 mph SE4.0 kmh SE 12.2 mph19.6 kmh 30.27 in1025.1 mb 0.00 in0.0 mm 0.00 in0.0 mm 0.00 in0.0 mm
11:40 AM 79.7°F26.5°C 60.0°F15.6°C 51% 6.5 mph SE10.5 kmh SE 13.6 mph21.9 kmh 30.27 in1025.1 mb 0.00 in0.0 mm 0.00 in0.0 mm 0.00 in0.0 mm
11:50 AM 80.4°F26.9°C 60.6°F15.9°C 51% 4.4 mph SE7.1 kmh SE 9.7 mph15.6 kmh 30.27 in1025.1 mb 0.00 in0.0 mm 0.00 in0.0 mm 0.00 in0.0 mm
12:00 PM 80.6°F27.0°C 60.2°F15.7°C 50% 6.1 mph ESE9.8 kmh ESE 12.5 mph20.1 kmh 30.27 in1025.1 mb 0.00 in0.0 mm 0.00 in0.0 mm 0.00 in0.0 mm
12:10 PM 80.6°F27.0°C 59.7°F15.4°C 49% 4.7 mph SE7.6 kmh SE 12.2 mph19.6 kmh 30.27 in1025.1 mb 0.00 in0.0 mm 0.00 in0.0 mm 0.00 in0.0 mm
12:20 PM 80.6°F27.0°C 60.2°F15.7°C 50% 6.2 mph ESE10.0 kmh ESE 13.6 mph21.9 kmh 30.27 in1025.1 mb 0.00 in0.0 mm 0.00 in0.0 mm 0.00 in0.0 mm
12:30 PM 81.0°F27.2°C 60.0°F15.6°C 49% 4.9 mph ESE7.9 kmh ESE 13.6 mph21.9 kmh 30.27 in1025.1 mb 0.00 in0.0 mm 0.00 in0.0 mm 0.00 in0.0 mm
12:40 PM 81.3°F27.4°C 59.8°F15.4°C 48% 5.3 mph SSE8.5 kmh SSE 12.5 mph20.1 kmh 30.27 in1025.1 mb 0.00 in0.0 mm 0.00 in0.0 mm 0.00 in0.0 mm
12:50 PM 81.3°F27.4°C 59.8°F15.4°C 48% 4.5 mph SSE7.2 kmh SSE 12.2 mph19.6 kmh 30.27 in1025.1 mb 0.00 in0.0 mm 0.00 in0.0 mm 0.00 in0.0 mm
01:00 PM 82.0°F27.8°C 60.4°F15.8°C 48% 3.7 mph S6.0 kmh S 11.8 mph19.0 kmh 30.27 in1025.1 mb 0.00 in0.0 mm 0.00 in0.0 mm 0.00 in0.0 mm
01:10 PM 82.0°F27.8°C 59.8°F15.4°C 47% 4.3 mph SSW6.9 kmh SSW 10.7 mph17.2 kmh 30.27 in1025.1 mb 0.00 in0.0 mm 0.00 in0.0 mm 0.00 in0.0 mm
01:20 PM 82.0°F27.8°C 59.8°F15.4°C 47% 3.9 mph S6.3 kmh S 9.7 mph15.6 kmh 30.27 in1025.1 mb 0.00 in0.0 mm 0.00 in0.0 mm 0.00 in0.0 mm
01:30 PM 82.8°F28.2°C 59.3°F15.2°C 45% 5.1 mph SSE8.2 kmh SSE 11.8 mph19.0 kmh 30.27 in1025.1 mb 0.00 in0.0 mm 0.00 in0.0 mm 0.00 in0.0 mm
01:40 PM 82.9°F28.3°C 60.0°F15.6°C 46% 4.2 mph S6.8 kmh S 10.4 mph16.7 kmh 30.27 in1025.1 mb 0.00 in0.0 mm 0.00 in0.0 mm 0.00 in0.0 mm
01:50 PM 82.9°F28.3°C 59.4°F15.2°C 45% 4.3 mph S6.9 kmh S 11.1 mph17.9 kmh 30.27 in1025.1 mb 0.00 in0.0 mm 0.00 in0.0 mm 0.00 in0.0 mm
02:00 PM 82.6°F28.1°C 58.5°F14.7°C 44% 5.3 mph SE8.5 kmh SE 13.6 mph21.9 kmh 30.24 in1024.0 mb 0.00 in0.0 mm 0.00 in0.0 mm 0.00 in0.0 mm
02:10 PM 82.2°F27.9°C 58.8°F14.9°C 45% 4.7 mph SE7.6 kmh SE 13.6 mph21.9 kmh 30.24 in1024.0 mb 0.00 in0.0 mm 0.00 in0.0 mm 0.00 in0.0 mm
02:20 PM 81.9°F27.7°C 59.1°F15.1°C 46% 4.3 mph SE6.9 kmh SE 9.7 mph15.6 kmh 30.24 in1024.0 mb 0.00 in0.0 mm 0.00 in0.0 mm 0.00 in0.0 mm
02:30 PM 81.7°F27.6°C 60.1°F15.6°C 48% 5.0 mph S8.0 kmh S 11.8 mph19.0 kmh 30.24 in1024.0 mb 0.00 in0.0 mm 0.00 in0.0 mm 0.00 in0.0 mm
02:40 PM 82.2°F27.9°C 61.2°F16.2°C 49% 5.2 mph SE8.4 kmh SE 12.2 mph19.6 kmh 30.24 in1024.0 mb 0.00 in0.0 mm 0.00 in0.0 mm 0.00 in0.0 mm
02:50 PM 82.0°F27.8°C 61.6°F16.4°C 50% 5.5 mph SE8.9 kmh SE 12.5 mph20.1 kmh 30.21 in1023.0 mb 0.00 in0.0 mm 0.00 in0.0 mm 0.00 in0.0 mm
03:00 PM 81.9°F27.7°C 60.8°F16.0°C 49% 4.5 mph SE7.2 kmh SE 12.9 mph20.8 kmh 30.24 in1024.0 mb 0.00 in0.0 mm 0.00 in0.0 mm 0.00 in0.0 mm
03:10 PM 81.9°F27.7°C 60.8°F16.0°C 49% 4.1 mph SE6.6 kmh SE 12.5 mph20.1 kmh 30.24 in1024.0 mb 0.00 in0.0 mm 0.00 in0.0 mm 0.00 in0.0 mm
03:20 PM 81.9°F27.7°C 61.4°F16.3°C 50% 2.7 mph S4.3 kmh S 9.7 mph15.6 kmh 30.24 in1024.0 mb 0.00 in0.0 mm 0.00 in0.0 mm 0.00 in0.0 mm
03:30 PM 82.0°F27.8°C 61.6°F16.4°C 50% 3.7 mph S6.0 kmh S 11.5 mph18.5 kmh 30.21 in1023.0 mb 0.00 in0.0 mm 0.00 in0.0 mm 0.00 in0.0 mm
03:40 PM 82.8°F28.2°C 62.2°F16.8°C 50% 5.9 mph SE9.5 kmh SE 14.3 mph23.0 kmh 30.21 in1023.0 mb 0.00 in0.0 mm 0.00 in0.0 mm 0.00 in0.0 mm
03:50 PM 83.3°F28.5°C 62.7°F17.1°C 50% 4.7 mph SE7.6 kmh SE 12.5 mph20.1 kmh 30.24 in1024.0 mb 0.00 in0.0 mm 0.00 in0.0 mm 0.00 in0.0 mm
04:00 PM 82.8°F28.2°C 61.1°F16.2°C 48% 5.9 mph SE9.5 kmh SE 12.9 mph20.8 kmh 30.24 in1024.0 mb 0.00 in0.0 mm 0.00 in0.0 mm 0.00 in0.0 mm
04:10 PM 82.9°F28.3°C 61.8°F16.6°C 49% 5.4 mph SE8.7 kmh SE 14.0 mph22.5 kmh 30.24 in1024.0 mb 0.00 in0.0 mm 0.00 in0.0 mm 0.00 in0.0 mm
04:20 PM 83.7°F28.7°C 61.9°F16.6°C 48% 4.4 mph SSE7.1 kmh SSE 14.0 mph22.5 kmh 30.24 in1024.0 mb 0.00 in0.0 mm 0.00 in0.0 mm 0.00 in0.0 mm
04:30 PM 83.1°F28.4°C 61.4°F16.3°C 48% 5.7 mph S9.2 kmh S 17.9 mph28.8 kmh 30.24 in1024.0 mb 0.00 in0.0 mm 0.00 in0.0 mm 0.00 in0.0 mm
04:40 PM 83.3°F28.5°C 61.0°F16.1°C 47% 6.1 mph S9.8 kmh S 13.6 mph21.9 kmh 30.24 in1024.0 mb 0.00 in0.0 mm 0.00 in0.0 mm 0.00 in0.0 mm
04:50 PM 83.3°F28.5°C 61.0°F16.1°C 47% 5.8 mph SSE9.3 kmh SSE 15.0 mph24.1 kmh 30.24 in1024.0 mb 0.00 in0.0 mm 0.00 in0.0 mm 0.00 in0.0 mm
05:00 PM 82.4°F28.0°C 60.7°F15.9°C 48% 3.9 mph SSE6.3 kmh SSE 12.9 mph20.8 kmh 30.24 in1024.0 mb 0.00 in0.0 mm 0.00 in0.0 mm 0.00 in0.0 mm
05:10 PM 81.9°F27.7°C 60.2°F15.7°C 48% 2.1 mph SE3.4 kmh SE 9.3 mph15.0 kmh 30.24 in1024.0 mb 0.00 in0.0 mm 0.00 in0.0 mm 0.00 in0.0 mm
05:20 PM 81.7°F27.6°C 60.1°F15.6°C 48% 2.7 mph SSE4.3 kmh SSE 10.0 mph16.1 kmh 30.24 in1024.0 mb 0.00 in0.0 mm 0.00 in0.0 mm 0.00 in0.0 mm
05:30 PM 81.9°F27.7°C 61.4°F16.3°C 50% 3.7 mph ESE6.0 kmh ESE 12.9 mph20.8 kmh 30.24 in1024.0 mb 0.00 in0.0 mm 0.00 in0.0 mm 0.00 in0.0 mm
05:40 PM 82.6°F28.1°C 62.1°F16.7°C 50% 2.8 mph SE4.5 kmh SE 12.9 mph20.8 kmh 30.24 in1024.0 mb 0.00 in0.0 mm 0.00 in0.0 mm 0.00 in0.0 mm
05:50 PM 82.8°F28.2°C 61.6°F16.4°C 49% 5.3 mph SSE8.5 kmh SSE 16.8 mph27.0 kmh 30.24 in1024.0 mb 0.00 in0.0 mm 0.00 in0.0 mm 0.00 in0.0 mm
06:00 PM 82.6°F28.1°C 60.9°F16.1°C 48% 4.0 mph SE6.4 kmh SE 12.2 mph19.6 kmh 30.24 in1024.0 mb 0.00 in0.0 mm 0.00 in0.0 mm 0.00 in0.0 mm
06:10 PM 82.4°F28.0°C 60.7°F15.9°C 48% 4.0 mph SE6.4 kmh SE 10.4 mph16.7 kmh 30.24 in1024.0 mb 0.00 in0.0 mm 0.00 in0.0 mm 0.00 in0.0 mm
06:20 PM 81.1°F27.3°C 59.6°F15.3°C 48% 4.1 mph SSE6.6 kmh SSE 10.7 mph17.2 kmh 30.24 in1024.0 mb 0.00 in0.0 mm 0.00 in0.0 mm 0.00 in0.0 mm
06:30 PM 80.8°F27.1°C 59.8°F15.4°C 49% 4.0 mph SSE6.4 kmh SSE 12.2 mph19.6 kmh 30.24 in1024.0 mb 0.00 in0.0 mm 0.00 in0.0 mm 0.00 in0.0 mm
06:40 PM 79.7°F26.5°C 59.4°F15.2°C 50% 2.6 mph SSE4.2 kmh SSE 8.9 mph14.3 kmh 30.24 in1024.0 mb 0.00 in0.0 mm 0.00 in0.0 mm 0.00 in0.0 mm
06:50 PM 79.2°F26.2°C 59.5°F15.3°C 51% 3.1 mph SSE5.0 kmh SSE 7.9 mph12.7 kmh 30.24 in1024.0 mb 0.00 in0.0 mm 0.00 in0.0 mm 0.00 in0.0 mm
07:00 PM 78.8°F26.0°C 59.1°F15.1°C 51% 2.0 mph SE3.2 kmh SE 7.9 mph12.7 kmh 30.24 in1024.0 mb 0.00 in0.0 mm 0.00 in0.0 mm 0.00 in0.0 mm
07:10 PM 78.3°F25.7°C 59.2°F15.1°C 52% 1.3 mph SE2.1 kmh SE 9.7 mph15.6 kmh 30.24 in1024.0 mb 0.00 in0.0 mm 0.00 in0.0 mm 0.00 in0.0 mm
07:20 PM 77.7°F25.4°C 59.2°F15.1°C 53% 1.0 mph SE1.6 kmh SE 5.0 mph8.0 kmh 30.21 in1023.0 mb 0.00 in0.0 mm 0.00 in0.0 mm 0.00 in0.0 mm
07:30 PM 77.7°F25.4°C 59.2°F15.1°C 53% 0.1 mph ESE0.2 kmh ESE 3.6 mph5.8 kmh 30.21 in1023.0 mb 0.00 in0.0 mm 0.00 in0.0 mm 0.00 in0.0 mm
07:40 PM 77.4°F25.2°C 58.9°F14.9°C 53% 1.4 mph ESE2.3 kmh ESE 8.6 mph13.8 kmh 30.21 in1023.0 mb 0.00 in0.0 mm 0.00 in0.0 mm 0.00 in0.0 mm
07:50 PM 76.8°F24.9°C 58.9°F14.9°C 54% 0.5 mph E0.8 kmh E 3.9 mph6.3 kmh 30.21 in1023.0 mb 0.00 in0.0 mm 0.00 in0.0 mm 0.00 in0.0 mm
08:00 PM 76.1°F24.5°C 58.8°F14.9°C 55% 0.4 mph E0.6 kmh E 4.3 mph6.9 kmh 30.21 in1023.0 mb 0.00 in0.0 mm 0.00 in0.0 mm 0.00 in0.0 mm
08:10 PM 75.2°F24.0°C 57.9°F14.4°C 55% 0.1 mph E0.2 kmh E 3.2 mph5.1 kmh 30.21 in1023.0 mb 0.00 in0.0 mm 0.00 in0.0 mm 0.00 in0.0 mm
08:20 PM 74.3°F23.5°C 58.1°F14.5°C 57% 0.5 mph SSE0.8 kmh SSE 5.0 mph8.0 kmh 30.21 in1023.0 mb 0.00 in0.0 mm 0.00 in0.0 mm 0.00 in0.0 mm
08:30 PM 73.6°F23.1°C 57.9°F14.4°C 58% 3.2 mph E5.1 kmh E 9.7 mph15.6 kmh 30.21 in1023.0 mb 0.00 in0.0 mm 0.00 in0.0 mm 0.00 in0.0 mm
08:40 PM 73.0°F22.8°C 57.9°F14.4°C 59% 1.6 mph E2.6 kmh E 7.5 mph12.1 kmh 30.21 in1023.0 mb 0.00 in0.0 mm 0.00 in0.0 mm 0.00 in0.0 mm
08:50 PM 72.5°F22.5°C 57.8°F14.3°C 60% 1.3 mph ESE2.1 kmh ESE 7.5 mph12.1 kmh 30.21 in1023.0 mb 0.00 in0.0 mm 0.00 in0.0 mm 0.00 in0.0 mm
09:00 PM 72.0°F22.2°C 57.3°F14.1°C 60% 0.8 mph SE1.3 kmh SE 4.7 mph7.6 kmh 30.18 in1022.0 mb 0.00 in0.0 mm 0.00 in0.0 mm 0.00 in0.0 mm
09:10 PM 71.6°F22.0°C 57.4°F14.1°C 61% 4.3 mph SE6.9 kmh SE 12.9 mph20.8 kmh 30.18 in1022.0 mb 0.00 in0.0 mm 0.00 in0.0 mm 0.00 in0.0 mm
09:20 PM 71.4°F21.9°C 57.7°F14.3°C 62% 2.3 mph ESE3.7 kmh ESE 7.9 mph12.7 kmh 30.21 in1023.0 mb 0.00 in0.0 mm 0.00 in0.0 mm 0.00 in0.0 mm
09:30 PM 70.9°F21.6°C 57.2°F14.0°C 62% 2.7 mph ESE4.3 kmh ESE 8.9 mph14.3 kmh 30.21 in1023.0 mb 0.00 in0.0 mm 0.00 in0.0 mm 0.00 in0.0 mm
09:40 PM 70.3°F21.3°C 56.7°F13.7°C 62% 5.1 mph ESE8.2 kmh ESE 12.5 mph20.1 kmh 30.21 in1023.0 mb 0.00 in0.0 mm 0.00 in0.0 mm 0.00 in0.0 mm
09:50 PM 69.8°F21.0°C 56.2°F13.4°C 62% 3.5 mph SE5.6 kmh SE 11.5 mph18.5 kmh 30.18 in1022.0 mb 0.00 in0.0 mm 0.00 in0.0 mm 0.00 in0.0 mm
10:00 PM 69.6°F20.9°C 56.0°F13.3°C 62% 2.6 mph ESE4.2 kmh ESE 9.3 mph15.0 kmh 30.18 in1022.0 mb 0.00 in0.0 mm 0.00 in0.0 mm 0.00 in0.0 mm
10:10 PM 69.1°F20.6°C 55.5°F13.1°C 62% 3.8 mph ESE6.1 kmh ESE 12.2 mph19.6 kmh 30.18 in1022.0 mb 0.00 in0.0 mm 0.00 in0.0 mm 0.00 in0.0 mm
10:20 PM 68.7°F20.4°C 55.6°F13.1°C 63% 6.3 mph ESE10.1 kmh ESE 12.5 mph20.1 kmh 30.18 in1022.0 mb 0.00 in0.0 mm 0.00 in0.0 mm 0.00 in0.0 mm
10:30 PM 68.4°F20.2°C 55.3°F12.9°C 63% 5.0 mph ESE8.0 kmh ESE 12.9 mph20.8 kmh 30.18 in1022.0 mb 0.00 in0.0 mm 0.00 in0.0 mm 0.00 in0.0 mm
10:40 PM 68.0°F20.0°C 54.9°F12.7°C 63% 4.0 mph ESE6.4 kmh ESE 11.5 mph18.5 kmh 30.18 in1022.0 mb 0.00 in0.0 mm 0.00 in0.0 mm 0.00 in0.0 mm
10:50 PM 67.6°F19.8°C 55.0°F12.8°C 64% 7.3 mph E11.7 kmh E 13.6 mph21.9 kmh 30.18 in1022.0 mb 0.00 in0.0 mm 0.00 in0.0 mm 0.00 in0.0 mm
11:00 PM 67.6°F19.8°C 55.0°F12.8°C 64% 7.9 mph ESE12.7 kmh ESE 14.0 mph22.5 kmh 30.18 in1022.0 mb 0.00 in0.0 mm 0.00 in0.0 mm 0.00 in0.0 mm
11:10 PM 67.5°F19.7°C 54.9°F12.7°C 64% 8.0 mph ESE12.9 kmh ESE 14.0 mph22.5 kmh 30.18 in1022.0 mb 0.00 in0.0 mm 0.00 in0.0 mm 0.00 in0.0 mm
11:20 PM 67.3°F19.6°C 55.1°F12.8°C 65% 7.8 mph E12.6 kmh E 15.0 mph24.1 kmh 30.15 in1021.0 mb 0.00 in0.0 mm 0.00 in0.0 mm 0.00 in0.0 mm
11:30 PM 67.1°F19.5°C 54.5°F12.5°C 64% 7.7 mph ESE12.4 kmh ESE 14.0 mph22.5 kmh 30.18 in1022.0 mb 0.00 in0.0 mm 0.00 in0.0 mm 0.00 in0.0 mm
11:40 PM 67.1°F19.5°C 54.5°F12.5°C 64% 8.6 mph ESE13.8 kmh ESE 15.7 mph25.3 kmh 30.18 in1022.0 mb 0.00 in0.0 mm 0.00 in0.0 mm 0.00 in0.0 mm
11:50 PM 66.9°F19.4°C 54.3°F12.4°C 64% 8.7 mph ESE14.0 kmh ESE 16.1 mph25.9 kmh 30.21 in1023.0 mb 0.00 in0.0 mm 0.00 in0.0 mm 0.00 in0.0 mm